Airfield :
LOGIN :

Register | Disclaimer

   EN    FR    IT 

 










Legend :    VFR   Marginal VFR   IFR   Intensive IFR   Very Intensive IFR
Visi :
Ceiling :
>= 8 km
>= 3000ft
5 to 8 km
1000 to 3000 ft
1500m to 5 km
500 to 1000 ft
800 to 1500m
200 to 500 ft
< 800m
< 200 ft
Symbols :   Thunderstorms  Fog  Heavy snow  Heavy precipitations  Wind > 20 kt
SIGMETs :     Misc.  Thunderstorms  Icing  Turbulence  Mountain Waves  Volcanic Ashes







- Airport Elevation : 19 ft
- IATA code : LCY
- Download approach charts


EGLC - London City

CURRENT METAR :
  • 181850Z AUTO 16008KT 9999 BKN034 09/03 Q1021

EXPIRED METARs :
  • 181820Z AUTO 16007KT 9999 BKN032 09/04 Q1021
  • 181750Z AUTO 16008KT 130V200 9999 BKN034 09/04 Q1021
  • 181720Z AUTO 16007G17KT 120V210 9999 OVC035 10/04 Q1021
  • 181650Z AUTO 18007KT 9999 BKN033 OVC039 10/03 Q1021

TAF AMD TAF EGLC
Valid from the 18 at 18:00 until the 18 at 22:00 UTC


181747Z 1818/1822 15005KT 9999 BKN035
BECMG 1819/1822 BKN012
ATIS : +44 20 7646 0224
No reported NOTAMs for that airfield.



MET'MAP, your aeronautical weather chart ! - Copyright ORBIFLY December 2007 - Disclaimer

ORBIFLY MET'MAP TEAM :

Programming & Development : Alexandra Zaïnal
Concept & Development : Baudouin d'Aumeries
Co-Development & Prog : Marc-Olivier Méhu
Technical & hardware support : Manuel Goepfert

Contact : metmap@orbifly.com




SOURCES & CREDITS :

   NOAA